Terminal Aerodrome Forecast
Issued by NWS

Current Version | Previous Version | Text Only | Print | Product List | Glossary On
Versions: 1 2 3 4 5 6 7 8 9 10 11 12
088
FTUS42 KTBW 241122
TAFPGD
TAF
KPGD 241122Z 2412/2512 11006KT P6SM SKC
     FM241600 16006KT P6SM SCT040
     FM241900 22008KT P6SM VCTS BKN050CB BKN100
     FM250100 VRB05KT P6SM SCT050=

USA.gov is the U.S. government's official web portal to all federal, state and local government web resources and services.